Hauptseite
METAR-TAF:

METAR-TAF

Flughäfen :

Marham, England

RAF Marham

Breite: 52-39N, Länge: 000-34E, Höhe: 23 m

Beobachtung

Neuester Wetterbericht von vor 1 Stunde und 13 Minuten, um 11:50 UTC
Wind 3 kt aus Süd/Südwest
Temperatur 3°C
Luftfeuchtigkeit 93%
Luftdruck 999 hPa
Sichtweite 10 km oder mehr
Leichtregen

METAR: EGYM 201150Z AUTO 21003KT 9999 -RA OVC045/// 03/02 Q0999

Zeit: 13:03 (13:03 UTC)


TAF: fehlend

Wetterbeobachtungen und Prognosen von mehr als 4000 Flughäfen (METAR und TAF Bericht).

Die verfügbaren Stationen werden durch gelbe und rote Markierungen auf der Karte dargestellt.

Führen Sie die Maus auf sie, um den Namen der Station zu sehen.

Darauf klicken, um die Beobachtung von Wetterbeobachtungen und Prognosen zu sehen.

Um die Karte zu ändern : klicken Sie auf den grünen Tasten mit einem schwarzen Kreuz Zum Vergrößern, auf den grünen Button mit einem Gedankenstrich zu verkleinern, oder auf die grünen Pfeile für benachbarte Karten.


METAR-TAF: